Time;durP1;ratioP1;P1;durP2;ratioP2;P2;SDS_P1;SDS_P2;PMS_P1;PMS_P2;Temp;Humidity;BMP_temperature;BMP_pressure;BME280_temperature;BME280_humidity;BME280_pressure;Samples;Min_cycle;Max_cycle;Signal;HPM_P1;HPM_P2
2021/06/22 00:00:29;;;;;;;12.83;6.93;;;;;;;24.53;52.13;99367.30;126917;1089;113065;-80
2021/06/22 00:03:21;;;;;;;12.75;6.50;;;;;;;24.49;52.65;99372.13;126851;1089;102877;-80
2021/06/22 00:06:09;;;;;;;13.70;7.53;;;;;;;24.46;52.93;99377.78;126787;1089;114090;-80
2021/06/22 00:08:58;;;;;;;10.30;7.60;;;;;;;24.41;52.65;99369.40;126971;1089;102898;-80
2021/06/22 00:11:45;;;;;;;12.07;7.97;;;;;;;24.37;52.79;99373.38;126784;1090;115288;-80
2021/06/22 00:14:33;;;;;;;13.97;8.40;;;;;;;24.32;52.90;99367.70;126895;1090;102993;-80
2021/06/22 00:17:21;;;;;;;13.40;7.73;;;;;;;24.29;53.74;99384.02;126774;1089;114428;-80
2021/06/22 00:20:11;;;;;;;10.03;7.73;;;;;;;24.24;53.67;99384.46;126899;1088;102957;-80
2021/06/22 00:23:00;;;;;;;14.03;8.10;;;;;;;24.20;53.87;99376.91;126853;1090;102851;-80
2021/06/22 00:25:48;;;;;;;14.27;7.80;;;;;;;24.14;53.94;99382.88;126794;1090;114145;-80
2021/06/22 00:28:36;;;;;;;13.53;7.97;;;;;;;24.08;53.95;99390.52;126967;1088;102947;-80
2021/06/22 00:31:24;;;;;;;11.90;7.23;;;;;;;24.06;54.26;99391.67;126618;1089;114376;-80
2021/06/22 00:34:11;;;;;;;13.10;6.80;;;;;;;24.05;53.75;99395.30;126747;1089;103006;-79
2021/06/22 00:36:59;;;;;;;10.63;6.83;;;;;;;24.03;54.09;99403.45;126742;1090;114247;-80
2021/06/22 00:39:47;;;;;;;12.20;7.37;;;;;;;24.02;54.69;99399.11;126747;1090;102998;-80
2021/06/22 00:42:36;;;;;;;11.10;7.10;;;;;;;24.02;54.81;99396.45;126625;1090;114117;-79
2021/06/22 00:45:28;;;;;;;10.47;7.40;;;;;;;24.01;55.00;99396.60;126701;1090;102893;-79
2021/06/22 00:48:20;;;;;;;11.63;7.20;;;;;;;23.98;54.58;99391.59;126642;1089;115400;-79
2021/06/22 00:51:08;;;;;;;10.97;7.57;;;;;;;23.93;55.22;99394.73;126739;1090;102874;-80
2021/06/22 00:53:59;;;;;;;13.73;8.03;;;;;;;23.90;54.99;99391.55;126710;1089;114427;-80
2021/06/22 00:56:48;;;;;;;13.53;7.37;;;;;;;23.87;55.13;99392.67;126816;1089;102867;-80
2021/06/22 00:59:36;;;;;;;12.70;7.90;;;;;;;23.85;55.37;99389.33;126675;1088;114216;-80
2021/06/22 01:02:27;;;;;;;17.23;8.13;;;;;;;23.83;55.61;99390.48;126998;1090;102887;-81
2021/06/22 01:05:15;;;;;;;13.13;8.30;;;;;;;23.79;55.93;99389.95;126970;1089;102877;-80
2021/06/22 01:08:10;;;;;;;14.53;9.00;;;;;;;23.69;56.42;99391.86;127033;1090;102981;-80
2021/06/22 01:10:59;;;;;;;14.07;9.20;;;;;;;23.58;56.18;99389.45;126981;1090;102834;-80
2021/06/22 01:13:48;;;;;;;14.80;8.83;;;;;;;23.49;56.62;99381.34;126875;1089;114376;-80
2021/06/22 01:16:37;;;;;;;12.10;9.10;;;;;;;23.42;56.54;99374.14;126811;1089;102894;-80
2021/06/22 01:19:25;;;;;;;14.77;8.87;;;;;;;23.39;57.02;99369.13;126869;1090;114157;-80
2021/06/22 01:22:18;;;;;;;13.33;9.77;;;;;;;23.30;57.87;99373.52;127053;1088;102857;-80
2021/06/22 01:25:07;;;;;;;12.80;8.80;;;;;;;23.23;57.31;99368.96;126781;1090;114437;-79
2021/06/22 01:27:56;;;;;;;12.90;9.55;;;;;;;23.19;57.49;99371.93;126989;1090;103018;-80
2021/06/22 01:30:44;;;;;;;17.40;9.83;;;;;;;23.19;57.64;99363.11;126928;1090;113255;-80
2021/06/22 01:33:32;;;;;;;10.97;8.90;;;;;;;23.21;57.66;99363.80;127000;1088;102965;-80
2021/06/22 01:36:21;;;;;;;11.13;8.97;;;;;;;23.23;57.11;99359.16;126869;1090;114240;-79
2021/06/22 01:39:14;;;;;;;16.30;9.30;;;;;;;23.27;57.89;99368.50;126696;1090;102870;-80
2021/06/22 01:42:02;;;;;;;14.80;9.37;;;;;;;23.27;57.75;99365.00;126620;1089;114437;-80
2021/06/22 01:44:53;;;;;;;17.10;10.17;;;;;;;23.23;58.22;99371.63;126789;1090;102924;-81
2021/06/22 01:47:42;;;;;;;13.37;9.03;;;;;;;23.19;58.03;99368.44;126974;1090;102945;-80
2021/06/22 01:50:31;;;;;;;13.63;9.13;;;;;;;23.15;58.64;99369.70;127009;1089;113920;-81
2021/06/22 01:53:20;;;;;;;14.67;9.33;;;;;;;23.12;58.35;99372.66;126848;1090;103047;-80
2021/06/22 01:56:11;;;;;;;15.57;10.43;;;;;;;23.12;58.69;99370.01;126807;1088;114350;-81
2021/06/22 01:59:04;;;;;;;15.30;9.97;;;;;;;23.12;58.58;99360.20;127053;1089;102973;-80
2021/06/22 02:02:15;;;;;;;13.37;9.67;;;;;;;23.14;58.63;99354.73;126796;1090;113102;-80
2021/06/22 02:05:11;;;;;;;16.57;9.30;;;;;;;23.15;58.38;99356.40;126910;1090;103019;-80
2021/06/22 02:08:01;;;;;;;14.30;10.07;;;;;;;23.19;58.73;99360.45;126905;1090;114201;-80
2021/06/22 02:10:51;;;;;;;15.47;9.60;;;;;;;23.23;58.91;99371.63;126967;1089;103065;-80
2021/06/22 02:13:52;;;;;;;14.87;9.03;;;;;;;23.25;58.42;99365.16;126722;1089;114455;-80
2021/06/22 02:16:42;;;;;;;12.10;9.93;;;;;;;23.24;58.62;99366.15;126980;1090;103319;-79
2021/06/22 02:19:31;;;;;;;15.70;9.33;;;;;;;23.23;58.62;99372.45;126740;1089;113153;-79
2021/06/22 02:22:23;;;;;;;14.07;9.50;;;;;;;23.24;58.83;99375.95;126863;1090;101873;-79
2021/06/22 02:25:15;;;;;;;12.50;9.10;;;;;;;23.23;58.69;99380.44;126749;1090;112978;-80
2021/06/22 02:28:11;;;;;;;11.07;9.10;;;;;;;23.24;59.02;99373.30;126745;1089;102843;-79
2021/06/22 02:31:00;;;;;;;15.13;8.83;;;;;;;23.24;58.68;99379.45;126686;1090;114335;-79
2021/06/22 02:33:47;;;;;;;13.67;9.93;;;;;;;23.25;58.63;99381.13;126832;1089;102943;-79
2021/06/22 02:36:35;;;;;;;17.13;10.30;;;;;;;23.22;59.00;99381.43;126737;1088;114275;-79
2021/06/22 02:39:23;;;;;;;15.27;10.40;;;;;;;23.19;59.00;99389.72;126827;1088;102839;-79
2021/06/22 02:42:14;;;;;;;14.83;9.80;;;;;;;23.13;58.95;99384.98;126663;1090;114427;-80
2021/06/22 02:45:03;;;;;;;20.90;9.80;;;;;;;23.06;59.02;99386.58;126730;1090;102854;-79
2021/06/22 02:47:52;;;;;;;17.05;10.30;;;;;;;23.02;59.95;99398.50;126834;1090;102895;-79
2021/06/22 02:50:42;;;;;;;16.67;10.30;;;;;;;23.01;59.83;99400.33;126757;1089;113075;-79
2021/06/22 02:53:32;;;;;;;13.90;10.00;;;;;;;22.99;59.77;99398.81;126847;1089;102865;-79
2021/06/22 02:56:20;;;;;;;12.93;9.87;;;;;;;22.98;59.47;99390.00;126877;1090;114318;-79
2021/06/22 02:59:17;;;;;;;14.63;9.30;;;;;;;23.00;59.53;99387.18;126858;1090;102998;-79
2021/06/22 03:02:06;;;;;;;22.37;9.90;;;;;;;23.01;59.39;99402.98;126598;1089;114211;-79
2021/06/22 03:04:54;;;;;;;12.37;9.97;;;;;;;23.02;59.94;99395.84;126696;1090;102938;-79
2021/06/22 03:07:43;;;;;;;13.50;10.33;;;;;;;23.03;59.72;99387.72;126623;1088;115203;-78
2021/06/22 03:10:31;;;;;;;14.73;9.17;;;;;;;23.07;59.35;99390.91;126754;1089;102920;-79
2021/06/22 03:13:20;;;;;;;13.37;9.77;;;;;;;23.09;59.65;99391.59;126756;1090;113397;-79
2021/06/22 03:16:09;;;;;;;17.47;10.20;;;;;;;23.13;59.71;99384.98;126703;1088;103483;-79
2021/06/22 03:18:57;;;;;;;14.63;9.70;;;;;;;23.14;59.79;99383.98;126658;1090;114463;-79
2021/06/22 03:21:47;;;;;;;14.30;9.50;;;;;;;23.14;59.72;99383.98;126702;1088;102861;-80
2021/06/22 03:24:36;;;;;;;20.63;10.73;;;;;;;23.15;60.17;99391.81;126654;1089;114456;-79
2021/06/22 03:27:25;;;;;;;13.43;10.93;;;;;;;23.18;60.20;99404.84;126980;1089;102876;-80
2021/06/22 03:30:43;;;;;;;17.80;10.70;;;;;;;23.23;59.77;99409.70;126564;1090;114523;-80
2021/06/22 03:33:31;;;;;;;16.07;10.43;;;;;;;23.26;59.73;99414.72;126747;1090;102863;-79
2021/06/22 03:36:19;;;;;;;19.57;10.57;;;;;;;23.30;59.94;99423.23;126643;1090;114633;-79
2021/06/22 03:39:08;;;;;;;16.67;10.07;;;;;;;23.33;59.59;99425.58;126773;1089;103103;-79
2021/06/22 03:41:56;;;;;;;13.17;9.90;;;;;;;23.35;59.39;99432.45;126713;1090;102989;-79
2021/06/22 03:44:44;;;;;;;18.60;11.07;;;;;;;23.38;59.55;99423.33;126646;1089;113961;-79
2021/06/22 03:47:36;;;;;;;14.90;10.30;;;;;;;23.38;59.69;99421.51;126680;1088;102852;-78
2021/06/22 03:50:25;;;;;;;17.83;10.67;;;;;;;23.42;59.59;99412.23;126594;1088;114334;-79
2021/06/22 03:53:13;;;;;;;13.70;10.70;;;;;;;23.46;59.79;99415.41;126867;1090;105649;-79
2021/06/22 03:56:01;;;;;;;15.60;10.40;;;;;;;23.52;59.84;99409.50;126528;1090;114448;-79
2021/06/22 03:59:08;;;;;;;19.13;10.23;;;;;;;23.62;59.63;99417.42;126770;1088;102821;-79
2021/06/22 04:01:55;;;;;;;20.40;10.80;;;;;;;23.69;59.59;99405.17;126708;1089;113259;-79
2021/06/22 04:04:44;;;;;;;19.40;10.83;;;;;;;23.76;59.52;99412.41;126761;1087;103331;-79
2021/06/22 04:07:51;;;;;;;17.23;10.30;;;;;;;23.80;59.46;99408.44;126941;1088;113332;-79
2021/06/22 04:10:40;;;;;;;22.30;10.57;;;;;;;23.86;59.05;99400.81;126955;1090;102861;-79
2021/06/22 04:13:27;;;;;;;14.03;9.60;;;;;;;23.92;58.93;99403.72;126834;1090;114590;-79
2021/06/22 04:16:17;;;;;;;16.13;9.67;;;;;;;23.99;59.12;99402.09;126752;1090;102753;-80
2021/06/22 04:19:07;;;;;;;17.67;10.30;;;;;;;24.07;58.84;99403.99;126629;1090;113338;-78
2021/06/22 04:21:58;;;;;;;22.43;9.90;;;;;;;24.21;58.82;99403.40;126815;1090;102940;-79
2021/06/22 04:25:07;;;;;;;17.77;10.30;;;;;;;24.31;58.26;99403.34;126630;1090;114242;-79
2021/06/22 04:27:56;;;;;;;16.63;9.97;;;;;;;24.38;58.03;99404.37;126914;1089;101775;-80
2021/06/22 04:30:44;;;;;;;18.40;9.23;;;;;;;24.43;58.57;99404.75;126697;1090;114490;-79
2021/06/22 04:33:32;;;;;;;20.37;9.93;;;;;;;24.46;57.73;99409.77;126791;1090;103732;-79
2021/06/22 04:36:20;;;;;;;22.40;9.17;;;;;;;24.54;57.74;99411.63;126706;1090;102843;-79
2021/06/22 04:39:12;;;;;;;18.75;10.65;;;;;;;24.64;57.67;99413.19;126842;1090;102965;-80
2021/06/22 04:42:01;;;;;;;23.40;10.10;;;;;;;24.69;57.37;99412.70;126785;1090;102862;-80
2021/06/22 04:44:48;;;;;;;23.13;10.27;;;;;;;24.68;57.23;99425.20;126768;1089;113370;-80
2021/06/22 04:47:36;;;;;;;20.70;10.10;;;;;;;24.78;56.84;99421.59;126851;1090;102884;-79
2021/06/22 04:50:26;;;;;;;16.33;9.90;;;;;;;24.89;56.70;99426.62;126721;1090;114294;-79
2021/06/22 04:53:14;;;;;;;16.17;9.60;;;;;;;25.00;56.91;99429.04;126744;1088;102856;-80
2021/06/22 04:56:02;;;;;;;23.10;11.17;;;;;;;25.07;56.57;99440.73;126820;1090;113211;-80
2021/06/22 04:58:52;;;;;;;23.57;11.60;;;;;;;25.08;56.51;99437.05;126889;1090;102954;-80
2021/06/22 05:01:40;;;;;;;22.17;10.27;;;;;;;25.13;56.79;99441.90;126784;1088;114502;-78
2021/06/22 05:04:28;;;;;;;18.93;10.47;;;;;;;25.23;56.54;99445.28;126674;1090;102855;-80
2021/06/22 05:07:16;;;;;;;20.43;10.53;;;;;;;25.35;56.17;99443.16;126618;1089;114470;-79
2021/06/22 05:10:05;;;;;;;18.47;10.40;;;;;;;25.36;55.82;99447.49;126774;1090;102865;-80
2021/06/22 05:12:53;;;;;;;16.30;10.90;;;;;;;25.38;56.02;99445.49;126599;1090;114499;-79
2021/06/22 05:15:41;;;;;;;25.67;10.40;;;;;;;25.43;55.70;99445.83;126736;1090;103494;-79
2021/06/22 05:18:30;;;;;;;17.40;11.07;;;;;;;25.52;55.59;99455.54;126891;1089;102756;-80
2021/06/22 05:21:17;;;;;;;25.87;11.17;;;;;;;25.50;55.32;99447.70;126961;1090;114166;-80
2021/06/22 05:24:06;;;;;;;25.77;11.10;;;;;;;25.57;55.46;99437.18;126917;1090;102851;-79
2021/06/22 05:26:54;;;;;;;19.37;10.20;;;;;;;25.69;55.27;99443.08;126690;1090;114628;-79
2021/06/22 05:29:42;;;;;;;25.37;9.70;;;;;;;25.84;55.22;99434.22;126788;1089;103685;-79
2021/06/22 05:32:31;;;;;;;17.97;10.07;;;;;;;26.04;54.69;99433.91;126856;1089;113070;-79
2021/06/22 05:35:19;;;;;;;17.37;9.13;;;;;;;26.23;54.31;99440.73;126774;1090;102941;-80
2021/06/22 05:38:08;;;;;;;18.20;8.73;;;;;;;26.36;54.30;99449.91;126740;1090;114091;-80
2021/06/22 05:40:57;;;;;;;16.27;8.63;;;;;;;26.54;53.70;99440.86;126720;1090;102957;-79
2021/06/22 05:43:45;;;;;;;20.43;9.57;;;;;;;26.72;53.49;99444.14;126589;1088;114250;-79
2021/06/22 05:46:32;;;;;;;17.37;8.40;;;;;;;26.92;53.54;99434.70;126726;1090;102978;-75
2021/06/22 05:49:20;;;;;;;13.30;7.93;;;;;;;27.09;52.96;99432.81;126692;1088;114685;-73
2021/06/22 05:52:08;;;;;;;22.10;9.73;;;;;;;27.30;52.66;99429.55;126794;1090;102875;-75
2021/06/22 05:54:56;;;;;;;18.90;9.17;;;;;;;27.53;52.15;99441.11;126479;1090;114328;-75
2021/06/22 05:57:46;;;;;;;15.70;8.23;;;;;;;27.94;52.14;99440.83;126678;1089;103427;-76
2021/06/22 06:00:34;;;;;;;17.07;7.63;;;;;;;28.41;51.36;99439.77;126689;1090;102930;-76
2021/06/22 06:03:22;;;;;;;16.23;8.40;;;;;;;29.65;49.71;99428.98;126544;1090;113925;-75
2021/06/22 06:06:09;;;;;;;16.20;7.50;;;;;;;31.32;47.58;99429.09;126645;1090;102943;-75
2021/06/22 06:08:57;;;;;;;20.57;7.27;;;;;;;33.00;44.61;99418.67;126558;1090;114334;-75
2021/06/22 06:11:45;;;;;;;19.27;7.63;;;;;;;34.46;41.22;99412.27;126569;1089;103013;-79
2021/06/22 06:14:33;;;;;;;15.17;7.13;;;;;;;35.52;39.13;99413.70;126643;1090;114248;-80
2021/06/22 06:17:22;;;;;;;18.37;6.37;;;;;;;36.68;37.27;99409.47;126870;1090;103010;-79
2021/06/22 06:20:12;;;;;;;14.40;6.43;;;;;;;37.82;35.08;99414.97;126699;1089;114115;-79
2021/06/22 06:23:00;;;;;;;20.60;6.63;;;;;;;38.48;33.40;99405.11;126812;1090;102952;-79
2021/06/22 06:25:47;;;;;;;20.10;6.30;;;;;;;39.25;32.08;99405.83;126669;1088;114242;-79
2021/06/22 06:28:42;;;;;;;16.83;5.73;;;;;;;40.03;32.05;99398.09;126672;1090;102791;-78
2021/06/22 06:31:32;;;;;;;17.97;5.70;;;;;;;40.99;29.56;99400.57;126714;1089;114357;-80
2021/06/22 06:34:20;;;;;;;14.10;5.77;;;;;;;41.39;28.49;99403.69;126872;1090;102955;-80
2021/06/22 06:37:08;;;;;;;21.60;5.53;;;;;;;41.61;27.35;99398.78;126707;1089;113241;-80
2021/06/22 06:39:55;;;;;;;12.00;5.10;;;;;;;41.88;27.03;99410.32;126844;1090;103128;-79
2021/06/22 06:42:44;;;;;;;15.53;5.07;;;;;;;42.08;26.29;99403.20;126676;1089;103225;-80
2021/06/22 06:45:34;;;;;;;16.63;5.80;;;;;;;42.38;26.25;99388.63;126607;1090;113975;-80
2021/06/22 06:48:24;;;;;;;13.60;5.20;;;;;;;42.84;26.11;99392.02;126710;1089;103097;-80
2021/06/22 06:51:11;;;;;;;16.00;5.20;;;;;;;43.40;25.75;99389.80;126712;1090;114121;-80
2021/06/22 06:54:00;;;;;;;18.70;5.30;;;;;;;43.83;24.22;99398.30;126685;1090;103376;-80
2021/06/22 06:56:50;;;;;;;18.07;5.83;;;;;;;43.98;24.53;99402.80;126597;1087;113086;-79
2021/06/22 06:59:38;;;;;;;15.70;5.20;;;;;;;44.08;23.55;99401.90;126904;1089;102941;-81
2021/06/22 07:02:26;;;;;;;15.63;5.83;;;;;;;43.65;23.68;99399.79;126747;1090;114151;-77
2021/06/22 07:05:14;;;;;;;24.97;7.10;;;;;;;43.65;23.81;99402.53;126819;1088;102928;-78
2021/06/22 07:08:04;;;;;;;15.40;6.40;;;;;;;43.99;24.03;99407.19;126695;1090;114088;-78
2021/06/22 07:10:51;;;;;;;18.53;6.87;;;;;;;44.44;23.64;99405.11;126682;1089;102924;-78
2021/06/22 07:13:39;;;;;;;17.80;6.77;;;;;;;44.86;23.03;99396.08;126606;1088;114332;-77
2021/06/22 07:16:27;;;;;;;14.97;5.90;;;;;;;44.70;21.56;99406.45;126718;1089;102913;-77
2021/06/22 07:19:15;;;;;;;18.43;5.90;;;;;;;44.28;21.91;99410.77;126709;1090;114292;-78
2021/06/22 07:22:04;;;;;;;20.60;6.50;;;;;;;43.90;22.29;99404.26;126757;1090;103180;-78
2021/06/22 07:24:52;;;;;;;14.07;5.53;;;;;;;43.83;22.38;99405.72;126785;1090;102830;-78
2021/06/22 07:27:40;;;;;;;19.50;5.20;;;;;;;43.52;22.35;99403.19;126686;1090;114319;-78
2021/06/22 07:30:29;;;;;;;20.65;5.50;;;;;;;42.92;22.41;99421.65;126797;1090;102881;-78
2021/06/22 07:33:17;;;;;;;21.73;6.13;;;;;;;42.65;22.64;99405.54;126568;1090;114522;-77
2021/06/22 07:36:07;;;;;;;16.77;6.03;;;;;;;42.34;22.94;99410.26;126629;1090;102852;-77
2021/06/22 07:38:55;;;;;;;16.15;6.00;;;;;;;42.16;23.63;99419.89;126520;1090;114103;-78
2021/06/22 07:41:43;;;;;;;14.40;5.00;;;;;;;42.33;24.17;99422.32;126837;1090;102946;-80
2021/06/22 07:44:31;;;;;;;14.67;6.03;;;;;;;42.50;23.79;99414.63;126636;1088;114399;-79
2021/06/22 07:47:19;;;;;;;10.95;4.85;;;;;;;42.51;23.93;99416.27;126673;1088;103326;-79
2021/06/22 07:50:09;;;;;;;14.73;5.50;;;;;;;42.75;23.54;99418.41;126625;1088;114664;-79
2021/06/22 07:52:57;;;;;;;15.43;5.83;;;;;;;43.14;23.09;99418.51;126712;1090;102946;-80
2021/06/22 07:55:45;;;;;;;13.17;5.37;;;;;;;43.54;23.57;99420.19;126732;1090;113389;-79
2021/06/22 07:58:34;;;;;;;17.50;5.87;;;;;;;43.58;22.34;99423.99;126700;1089;102903;-79
2021/06/22 08:01:22;;;;;;;9.80;4.87;;;;;;;43.40;23.04;99422.75;126609;1090;114333;-79
2021/06/22 08:04:10;;;;;;;19.13;5.37;;;;;;;43.60;22.73;99421.78;126733;1090;102357;-79
2021/06/22 08:06:58;;;;;;;16.07;5.47;;;;;;;43.16;22.23;99415.48;126808;1089;102996;-79
2021/06/22 08:09:45;;;;;;;18.17;5.60;;;;;;;43.08;22.20;99417.69;126783;1090;114354;-79
2021/06/22 08:12:33;;;;;;;13.20;4.50;;;;;;;43.05;22.40;99425.67;126811;1090;102861;-79
2021/06/22 08:15:21;;;;;;;13.30;4.53;;;;;;;42.83;21.08;99421.36;126606;1090;113039;-79
2021/06/22 08:18:10;;;;;;;17.13;4.60;;;;;;;42.12;22.08;99423.47;126703;1090;102894;-79
2021/06/22 08:21:01;;;;;;;11.03;4.40;;;;;;;41.66;23.14;99419.91;126637;1088;114336;-79
2021/06/22 08:23:48;;;;;;;11.87;4.53;;;;;;;41.40;23.27;99425.31;126787;1090;103003;-79
2021/06/22 08:26:36;;;;;;;9.20;3.93;;;;;;;41.30;23.30;99430.78;126732;1090;114349;-79
2021/06/22 08:29:24;;;;;;;10.27;4.07;;;;;;;41.18;23.08;99436.45;126898;1089;103463;-79
2021/06/22 08:32:12;;;;;;;9.93;4.20;;;;;;;41.04;23.58;99432.58;126610;1089;114406;-79
2021/06/22 08:35:01;;;;;;;11.90;4.27;;;;;;;41.21;23.49;99435.91;126789;1089;103041;-79
2021/06/22 08:37:48;;;;;;;13.30;4.07;;;;;;;40.96;23.50;99433.11;126693;1090;114294;-79
2021/06/22 08:40:41;;;;;;;10.57;4.33;;;;;;;40.79;23.90;99432.46;126831;1090;103505;-79
2021/06/22 08:43:30;;;;;;;11.57;4.50;;;;;;;40.75;24.34;99443.91;126623;1089;114540;-79
2021/06/22 08:46:19;;;;;;;10.00;4.45;;;;;;;40.38;24.51;99438.48;126640;1088;102967;-79
2021/06/22 08:49:07;;;;;;;10.30;3.50;;;;;;;40.25;23.46;99454.53;126690;1090;103456;-79
2021/06/22 08:51:58;;;;;;;11.97;4.10;;;;;;;39.77;24.65;99445.38;126669;1090;114018;-79
2021/06/22 08:54:46;;;;;;;12.10;4.00;;;;;;;39.28;24.95;99450.85;126698;1089;101812;-79
2021/06/22 08:57:35;;;;;;;7.23;4.40;;;;;;;39.26;25.29;99447.56;126619;1088;114450;-79
2021/06/22 09:00:24;;;;;;;13.47;4.67;;;;;;;39.45;25.47;99437.94;126640;1090;103030;-79
2021/06/22 09:03:14;;;;;;;8.67;3.57;;;;;;;39.64;24.91;99451.25;126567;1088;113086;-79
2021/06/22 09:06:04;;;;;;;9.87;4.13;;;;;;;39.29;25.04;99457.95;126765;1089;102965;-79
2021/06/22 09:08:54;;;;;;;8.97;3.70;;;;;;;39.11;25.23;99450.11;126581;1090;114297;-79
2021/06/22 09:12:04;;;;;;;9.47;4.20;;;;;;;39.15;25.16;99454.00;126653;1089;102872;-79
2021/06/22 09:14:52;;;;;;;9.57;3.73;;;;;;;39.12;25.86;99452.58;126688;1089;112877;-79
2021/06/22 09:17:42;;;;;;;10.40;4.40;;;;;;;39.17;25.58;99449.94;126651;1088;103017;-79
2021/06/22 09:20:36;;;;;;;16.43;4.30;;;;;;;38.69;25.63;99480.63;126754;1090;114252;-79
2021/06/22 09:23:27;;;;;;;8.93;3.60;;;;;;;38.35;25.78;99458.04;126677;1090;102940;-79
2021/06/22 09:26:19;;;;;;;11.07;4.90;;;;;;;38.41;26.12;99459.75;126672;1088;114088;-79
2021/06/22 09:29:14;;;;;;;9.83;3.47;;;;;;;38.33;26.29;99466.46;126798;1088;103087;-79
2021/06/22 09:32:01;;;;;;;11.68;3.80;;;;;;;38.05;26.49;99461.06;126583;1090;114317;-79
2021/06/22 09:35:17;;;;;;;7.20;3.70;;;;;;;37.93;25.62;99473.95;126832;1089;102870;-79
2021/06/22 09:38:05;;;;;;;15.17;4.20;;;;;;;37.71;26.92;99455.59;126649;1088;114246;-79
2021/06/22 09:41:22;;;;;;;10.57;3.53;;;;;;;38.06;27.48;99458.13;126683;1089;103450;-78
2021/06/22 09:44:13;;;;;;;7.60;3.60;;;;;;;38.18;26.09;99457.20;126641;1089;114232;-78
2021/06/22 09:47:03;;;;;;;9.07;3.77;;;;;;;38.16;26.40;99457.45;126799;1088;102968;-79
2021/06/22 09:49:52;;;;;;;7.23;3.73;;;;;;;37.87;26.51;99459.41;126724;1090;114303;-79
2021/06/22 09:52:40;;;;;;;10.40;4.43;;;;;;;37.61;27.05;99452.69;126827;1089;102869;-79
2021/06/22 09:55:35;;;;;;;6.13;3.60;;;;;;;37.36;27.45;99447.61;126697;1089;102882;-79
2021/06/22 09:58:38;;;;;;;8.40;3.70;;;;;;;37.34;27.53;99451.61;126651;1089;102881;-78
2021/06/22 10:01:35;;;;;;;14.43;3.93;;;;;;;37.18;27.56;99448.59;126814;1089;102998;-78
2021/06/22 10:04:27;;;;;;;8.00;3.57;;;;;;;37.25;28.01;99453.05;126634;1089;114106;-78
2021/06/22 10:07:18;;;;;;;15.07;3.83;;;;;;;37.41;27.55;99452.31;126741;1089;102971;-79
2021/06/22 10:10:06;;;;;;;8.53;3.90;;;;;;;37.44;27.41;99454.54;126701;1089;114237;-78
2021/06/22 10:12:55;;;;;;;6.37;4.00;;;;;;;37.33;27.58;99447.24;126638;1088;103009;-78
2021/06/22 10:15:42;;;;;;;14.17;5.03;;;;;;;37.11;27.59;99453.33;126588;1088;114202;-78
2021/06/22 10:18:31;;;;;;;11.07;4.60;;;;;;;36.71;28.74;99447.02;126694;1090;102907;-78
2021/06/22 10:21:19;;;;;;;7.57;4.00;;;;;;;36.43;29.02;99470.30;126569;1089;114417;-78
2021/06/22 10:24:08;;;;;;;10.27;4.20;;;;;;;36.07;28.95;99451.47;126758;1090;102906;-78
2021/06/22 10:26:59;;;;;;;11.43;4.63;;;;;;;36.10;29.83;99456.46;126557;1090;114316;-78
2021/06/22 10:29:51;;;;;;;8.40;4.20;;;;;;;36.14;29.84;99444.06;126716;1090;102910;-79
2021/06/22 10:32:39;;;;;;;6.67;4.70;;;;;;;35.77;29.56;99441.50;126689;1090;113273;-78
2021/06/22 10:35:28;;;;;;;10.70;4.43;;;;;;;35.57;30.59;99446.41;126782;1090;102852;-78
2021/06/22 10:38:21;;;;;;;11.20;4.53;;;;;;;35.89;30.70;99430.69;126653;1090;114410;-78
2021/06/22 10:41:09;;;;;;;15.70;5.30;;;;;;;36.06;30.12;99423.50;126702;1090;102949;-78
2021/06/22 10:43:57;;;;;;;12.90;5.67;;;;;;;35.78;30.10;99431.47;126829;1090;102923;-78
2021/06/22 10:46:47;;;;;;;8.73;4.57;;;;;;;35.33;30.88;99434.59;126778;1090;114127;-78
2021/06/22 10:49:35;;;;;;;8.60;4.50;;;;;;;35.14;31.44;99425.67;126839;1090;103815;-79
2021/06/22 10:52:53;;;;;;;7.25;5.10;;;;;;;35.13;31.52;99410.47;126648;1089;114476;-78
2021/06/22 10:55:51;;;;;;;11.28;4.50;;;;;;;35.04;30.41;99414.56;126760;1090;102847;-78
2021/06/22 10:59:23;;;;;;;20.50;4.80;;;;;;;34.96;31.18;99412.98;126688;1089;114142;-78
2021/06/22 11:02:11;;;;;;;10.37;3.73;;;;;;;34.98;30.88;99410.03;126838;1090;102997;-78
2021/06/22 11:05:16;;;;;;;10.13;4.37;;;;;;;35.16;30.24;99407.30;126622;1088;113973;-78
2021/06/22 11:08:32;;;;;;;7.65;4.20;;;;;;;35.42;30.25;99406.97;126744;1089;103008;-78
2021/06/22 11:11:21;;;;;;;8.87;4.40;;;;;;;35.39;29.60;99410.15;126540;1088;113708;-79
2021/06/22 11:14:10;;;;;;;12.37;5.30;;;;;;;35.23;29.85;99410.77;126733;1088;102962;-79
2021/06/22 11:17:43;;;;;;;10.03;4.10;;;;;;;35.17;30.52;99400.81;126710;1090;113946;-78
2021/06/22 11:20:34;;;;;;;8.83;4.40;;;;;;;35.05;30.04;99398.08;126812;1089;102847;-78
2021/06/22 11:23:23;;;;;;;7.70;4.20;;;;;;;34.94;30.28;99403.42;126591;1090;113733;-78
2021/06/22 11:26:11;;;;;;;10.87;4.50;;;;;;;34.78;29.92;99397.53;126675;1089;102848;-78
2021/06/22 11:29:01;;;;;;;9.20;4.80;;;;;;;34.66;30.73;99402.08;126693;1090;113095;-79
2021/06/22 11:31:57;;;;;;;15.60;5.07;;;;;;;34.62;30.63;99406.27;126840;1090;103002;-78
2021/06/22 11:34:57;;;;;;;12.47;4.73;;;;;;;34.32;30.53;99391.80;126694;1090;114169;-78
2021/06/22 11:37:46;;;;;;;11.10;4.80;;;;;;;33.91;31.70;99399.44;126662;1090;102897;-78
2021/06/22 11:40:34;;;;;;;8.20;4.53;;;;;;;33.73;31.85;99398.52;126574;1089;114359;-78
2021/06/22 11:43:21;;;;;;;6.80;4.60;;;;;;;33.71;32.26;99377.10;126827;1088;103007;-79
2021/06/22 11:46:27;;;;;;;14.77;5.30;;;;;;;33.68;32.33;99399.18;126734;1089;112878;-78
2021/06/22 11:49:18;;;;;;;10.57;4.70;;;;;;;33.70;32.62;99402.48;126672;1089;102874;-78
2021/06/22 11:52:09;;;;;;;9.03;4.77;;;;;;;33.90;32.09;99402.36;126727;1089;114299;-78
2021/06/22 11:55:00;;;;;;;9.10;5.00;;;;;;;34.11;32.00;99385.76;126697;1090;102890;-79
2021/06/22 11:57:50;;;;;;;9.00;4.90;;;;;;;34.25;31.70;99378.31;126707;1090;114117;-78
2021/06/22 12:00:38;;;;;;;12.30;5.30;;;;;;;34.23;31.41;99378.54;126817;1090;102882;-78
2021/06/22 12:03:26;;;;;;;7.97;4.83;;;;;;;34.10;32.45;99381.36;126573;1090;114472;-78
2021/06/22 12:06:15;;;;;;;8.67;4.90;;;;;;;34.07;31.73;99387.23;126711;1088;102868;-78
2021/06/22 12:09:21;;;;;;;9.07;4.90;;;;;;;34.22;32.11;99382.30;126635;1089;114294;-78
2021/06/22 12:12:10;;;;;;;9.77;4.93;;;;;;;34.59;32.01;99386.94;126786;1089;102881;-79
2021/06/22 12:14:58;;;;;;;8.43;6.13;;;;;;;34.65;31.46;99384.17;126768;1090;103271;-78
2021/06/22 12:17:50;;;;;;;11.23;5.63;;;;;;;34.62;30.99;99381.89;126791;1088;103322;-78
2021/06/22 12:20:41;;;;;;;14.53;5.57;;;;;;;34.30;31.48;99378.48;126696;1090;102905;-77
2021/06/22 12:23:30;;;;;;;9.97;5.73;;;;;;;34.06;32.16;99385.58;126559;1089;114210;-78
2021/06/22 12:26:19;;;;;;;8.97;5.27;;;;;;;34.09;31.91;99373.47;126787;1090;102923;-78
2021/06/22 12:29:22;;;;;;;9.70;5.07;;;;;;;34.18;31.34;99382.98;126555;1090;113989;-78
2021/06/22 12:32:11;;;;;;;7.57;5.00;;;;;;;34.11;31.37;99384.90;126704;1090;102125;-78
2021/06/22 12:34:59;;;;;;;8.30;5.27;;;;;;;34.13;31.76;99382.83;126652;1088;114089;-78
2021/06/22 12:37:48;;;;;;;11.87;5.10;;;;;;;34.20;31.55;99375.45;126606;1089;102942;-78
2021/06/22 12:40:48;;;;;;;6.43;4.80;;;;;;;34.10;31.70;99373.25;126664;1089;114445;-78
2021/06/22 12:43:52;;;;;;;8.13;5.03;;;;;;;34.01;31.79;99365.66;126687;1088;102914;-78
2021/06/22 12:46:43;;;;;;;11.63;5.47;;;;;;;33.96;32.05;99369.03;126711;1089;114187;-78
2021/06/22 12:49:33;;;;;;;9.17;5.50;;;;;;;33.91;32.29;99358.86;126684;1090;103380;-78
2021/06/22 12:52:21;;;;;;;9.33;5.90;;;;;;;33.83;32.62;99363.70;126623;1088;113918;-78
2021/06/22 12:55:10;;;;;;;13.60;6.13;;;;;;;33.85;32.07;99361.63;126767;1089;103039;-78